Time;durP1;ratioP1;P1;durP2;ratioP2;P2;SDS_P1;SDS_P2;PMS_P1;PMS_P2;Temp;Humidity;BMP_temperature;BMP_pressure;BME280_temperature;BME280_humidity;BME280_pressure;Samples;Min_cycle;Max_cycle;Signal;HPM_P1;HPM_P2
2023/01/06 00:01:09;;;;;;;17.23;7.18;;;;;;;-144.47;100.00;52915.69;4961629;28;20031;-68
2023/01/06 00:03:35;;;;;;;14.40;6.70;;;;;;;-144.47;100.00;52943.47;4963071;28;20170;-67
2023/01/06 00:06:02;;;;;;;19.08;7.10;;;;;;;-144.47;100.00;52925.59;4963673;28;20034;-66
2023/01/06 00:08:28;;;;;;;17.08;6.78;;;;;;;-144.47;100.00;52929.59;4962382;28;20038;-65
2023/01/06 00:10:54;;;;;;;18.25;6.95;;;;;;;-144.47;100.00;52897.81;4960651;28;20120;-67
2023/01/06 00:13:20;;;;;;;21.90;7.90;;;;;;;-144.47;100.00;52933.56;4961831;28;20027;-67
2023/01/06 00:15:45;;;;;;;16.40;6.57;;;;;;;-144.47;100.00;52949.44;4962733;28;20385;-69
2023/01/06 00:18:11;;;;;;;22.50;7.40;;;;;;;-144.47;100.00;52923.63;4962215;28;20421;-67
2023/01/06 00:20:36;;;;;;;24.05;9.07;;;;;;;-144.47;100.00;52915.69;4962015;28;20026;-67
2023/01/06 00:23:02;;;;;;;25.17;8.02;;;;;;;-144.47;100.00;52873.97;4963460;28;20606;-67
2023/01/06 00:25:27;;;;;;;18.92;7.45;;;;;;;-144.47;100.00;52937.53;4963273;28;20041;-66
2023/01/06 00:27:54;;;;;;;16.95;6.65;;;;;;;-144.47;100.00;52923.63;4961324;28;20030;-67
2023/01/06 00:30:20;;;;;;;17.30;6.65;;;;;;;-144.47;100.00;52927.59;4964185;28;20029;-66
2023/01/06 00:32:45;;;;;;;13.55;6.32;;;;;;;-144.47;100.00;52933.56;4970587;28;20105;-67
2023/01/06 00:35:11;;;;;;;13.20;6.13;;;;;;;-144.47;100.00;52943.47;4968886;28;20026;-66
2023/01/06 00:37:36;;;;;;;13.95;6.85;;;;;;;-144.47;100.00;52913.69;4968377;28;20110;-66
2023/01/06 00:40:01;;;;;;;16.92;6.80;;;;;;;-144.47;100.00;52923.63;4969019;28;20563;-68
2023/01/06 00:42:27;;;;;;;11.55;6.47;;;;;;;-144.47;100.00;52939.50;4968928;28;20026;-66
2023/01/06 00:44:52;;;;;;;19.20;7.13;;;;;;;-144.47;100.00;52933.56;4968010;28;20041;-68
2023/01/06 00:47:18;;;;;;;17.77;5.82;;;;;;;-144.47;100.00;52935.53;4968693;28;20153;-65
2023/01/06 00:49:44;;;;;;;13.13;6.85;;;;;;;-144.47;100.00;52907.72;4969159;28;20466;-67
2023/01/06 00:52:10;;;;;;;14.82;7.22;;;;;;;-144.47;100.00;52923.63;4969327;28;20113;-65
2023/01/06 00:54:36;;;;;;;14.57;7.40;;;;;;;-144.47;100.00;52911.69;4969233;28;20480;-66
2023/01/06 00:57:01;;;;;;;13.95;7.03;;;;;;;-144.47;100.00;52921.63;4968756;28;20058;-65
2023/01/06 00:59:26;;;;;;;13.50;6.43;;;;;;;-144.47;100.00;52901.78;4966568;28;20130;-65
2023/01/06 01:01:54;;;;;;;12.95;6.57;;;;;;;-144.47;100.00;52947.47;4969624;28;20031;-67
2023/01/06 01:04:20;;;;;;;15.10;7.05;;;;;;;-144.47;100.00;52927.59;4957444;28;20569;-67
2023/01/06 01:06:46;;;;;;;12.75;6.90;;;;;;;-144.47;100.00;52929.59;4968867;28;20022;-66
2023/01/06 01:09:20;;;;;;;13.00;6.63;;;;;;;-144.47;100.00;52925.59;4968941;28;20022;-69
2023/01/06 01:14:29;;;;;;;16.08;6.95;;;;;;;-144.47;100.00;52911.69;4966153;28;20088;-68
2023/01/06 01:16:54;;;;;;;13.85;6.80;;;;;;;-144.47;100.00;52923.63;4965975;28;20454;-66
2023/01/06 01:19:20;;;;;;;12.40;6.15;;;;;;;-144.47;100.00;52929.59;4968905;28;20122;-66
2023/01/06 01:21:46;;;;;;;15.90;6.82;;;;;;;-144.47;100.00;52911.69;4971050;28;20030;-68
2023/01/06 01:24:12;;;;;;;18.92;7.22;;;;;;;-144.47;100.00;52909.72;4968224;28;20083;-67
2023/01/06 01:26:37;;;;;;;15.85;7.60;;;;;;;-144.47;100.00;52923.63;4967885;28;20126;-66
2023/01/06 01:29:03;;;;;;;14.45;7.20;;;;;;;-144.47;100.00;52923.63;4967439;28;20093;-66
2023/01/06 01:31:29;;;;;;;20.27;7.78;;;;;;;-144.47;100.00;52935.53;4968881;28;20033;-68
2023/01/06 01:33:54;;;;;;;16.08;6.85;;;;;;;-144.47;100.00;52925.59;4968520;28;20426;-68
2023/01/06 01:36:20;;;;;;;17.65;7.70;;;;;;;-144.47;100.00;52911.69;4968441;28;20027;-67
2023/01/06 01:38:45;;;;;;;18.73;7.30;;;;;;;-144.47;100.00;52939.50;4968963;28;20061;-67
2023/01/06 01:41:16;;;;;;;18.90;7.85;;;;;;;-144.47;100.00;52911.69;4972445;28;20441;-67
2023/01/06 01:43:45;;;;;;;15.00;6.70;;;;;;;-144.47;100.00;52945.47;4972174;28;20360;-68
2023/01/06 01:46:13;;;;;;;16.73;7.75;;;;;;;-144.47;100.00;52913.69;4972793;28;20218;-66
2023/01/06 01:48:38;;;;;;;19.05;8.07;;;;;;;-144.47;100.00;52905.75;4972256;28;20629;-67
2023/01/06 01:51:08;;;;;;;18.65;8.18;;;;;;;-144.47;100.00;52905.75;4973478;28;20106;-66
2023/01/06 01:53:41;;;;;;;22.60;8.68;;;;;;;-144.47;100.00;52911.69;4972582;28;20050;-67
2023/01/06 01:56:11;;;;;;;20.77;7.30;;;;;;;-144.47;100.00;52935.53;4972185;28;20035;-65
2023/01/06 01:58:42;;;;;;;19.13;7.70;;;;;;;-144.47;100.00;52941.50;4970562;28;20031;-66
2023/01/06 02:01:09;;;;;;;20.65;7.13;;;;;;;-144.47;100.00;52923.63;4970083;28;20057;-66
2023/01/06 02:03:36;;;;;;;17.23;7.53;;;;;;;-144.47;100.00;52893.81;4967008;28;20038;-66
2023/01/06 02:06:05;;;;;;;20.77;7.07;;;;;;;-144.47;100.00;52921.63;4971920;28;20122;-68
2023/01/06 02:08:43;;;;;;;13.48;6.55;;;;;;;-144.47;100.00;52897.81;4964082;28;20019;-68
2023/01/06 02:11:09;;;;;;;20.98;7.93;;;;;;;-144.47;100.00;52917.66;4972380;28;20310;-67
2023/01/06 02:13:38;;;;;;;17.85;7.50;;;;;;;-144.47;100.00;52937.53;4960979;28;20031;-66
2023/01/06 02:16:51;;;;;;;18.85;7.20;;;;;;;-144.47;100.00;52887.88;4971858;28;20117;-66
2023/01/06 02:19:26;;;;;;;13.65;6.05;;;;;;;-144.47;100.00;52925.59;4971600;28;20042;-67
2023/01/06 02:21:52;;;;;;;16.88;6.50;;;;;;;-144.47;100.00;52915.69;4963614;28;20019;-67
2023/01/06 02:24:29;;;;;;;19.42;7.15;;;;;;;-144.47;100.00;52919.66;4971270;28;20506;-66
2023/01/06 02:27:06;;;;;;;17.42;6.35;;;;;;;-144.47;100.00;52919.66;4971111;28;20349;-67
2023/01/06 02:29:50;;;;;;;15.65;6.43;;;;;;;-144.47;100.00;52937.53;4967610;28;20601;-67
2023/01/06 02:32:43;;;;;;;18.52;7.00;;;;;;;-144.47;100.00;52909.72;4972103;28;20031;-66
2023/01/06 02:35:46;;;;;;;20.00;6.45;;;;;;;-144.47;100.00;52953.41;4971301;28;20390;-66
2023/01/06 02:38:26;;;;;;;13.73;6.55;;;;;;;-144.47;100.00;52895.81;4962721;28;20019;-67
2023/01/06 02:41:11;;;;;;;22.83;7.40;;;;;;;-144.47;100.00;52891.84;4969432;28;20066;-67
2023/01/06 02:43:45;;;;;;;18.83;7.43;;;;;;;-144.47;99.83;52899.78;4970499;28;20113;-69
2023/01/06 02:46:33;;;;;;;14.10;7.07;;;;;;;-144.47;99.75;52917.66;4971011;28;20093;-68
2023/01/06 02:49:20;;;;;;;20.58;6.53;;;;;;;-144.47;99.33;52913.69;4983883;28;20027;-68
2023/01/06 02:51:54;;;;;;;16.13;7.28;;;;;;;-144.47;98.98;52905.75;4970809;28;20031;-68
2023/01/06 02:54:29;;;;;;;18.02;6.30;;;;;;;-144.47;98.80;52903.75;4971324;28;20047;-65
2023/01/06 02:57:35;;;;;;;16.48;6.30;;;;;;;-144.47;98.53;52891.84;4969847;28;20310;-67
2023/01/06 03:00:09;;;;;;;18.73;6.40;;;;;;;-144.47;98.38;52895.81;4969033;28;20507;-66
2023/01/06 03:02:36;;;;;;;22.50;6.88;;;;;;;-144.47;98.50;52907.72;4971599;28;20096;-67
2023/01/06 03:05:05;;;;;;;16.17;6.07;;;;;;;-144.47;98.25;52921.63;4971046;28;20030;-68
2023/01/06 03:07:32;;;;;;;16.08;6.78;;;;;;;-144.47;98.59;52903.75;4970846;28;20073;-67
2023/01/06 03:10:00;;;;;;;19.38;6.25;;;;;;;-144.47;98.68;52927.59;4971184;28;20050;-67
2023/01/06 03:12:32;;;;;;;22.05;6.72;;;;;;;-144.47;98.81;52907.72;4971684;28;20018;-67
2023/01/06 03:14:57;;;;;;;15.75;6.45;;;;;;;-144.47;98.73;52895.81;4969896;28;20036;-67
2023/01/06 03:17:24;;;;;;;21.27;7.00;;;;;;;-144.47;98.63;52903.75;4970869;28;20019;-66
2023/01/06 03:19:49;;;;;;;23.23;5.82;;;;;;;-144.47;98.55;52917.66;4971081;28;20485;-66
2023/01/06 03:22:16;;;;;;;25.60;6.22;;;;;;;-144.47;98.29;52915.69;4971657;28;20046;-67
2023/01/06 03:24:42;;;;;;;18.50;5.30;;;;;;;-144.47;98.33;52907.72;4958424;28;20393;-65
2023/01/06 03:27:08;;;;;;;17.73;5.53;;;;;;;-144.47;98.08;52891.84;4970842;28;20443;-67
2023/01/06 03:29:35;;;;;;;16.52;5.75;;;;;;;-144.47;98.06;52905.75;4969639;28;20449;-69
2023/01/06 03:32:11;;;;;;;13.82;4.90;;;;;;;-144.47;97.61;52917.66;4971518;28;20510;-66
2023/01/06 03:35:07;;;;;;;15.95;4.70;;;;;;;-144.47;98.03;52931.56;4959009;28;20118;-68
2023/01/06 03:37:58;;;;;;;26.95;6.25;;;;;;;-144.47;97.87;52897.81;4970015;28;20023;-67
2023/01/06 03:40:42;;;;;;;18.27;5.40;;;;;;;-144.47;98.08;52907.72;4971077;28;20030;-66
2023/01/06 03:43:22;;;;;;;12.93;4.10;;;;;;;-144.47;98.14;52913.69;4971976;28;20026;-67
2023/01/06 03:45:56;;;;;;;18.20;5.40;;;;;;;-144.47;97.91;52929.59;4971182;28;20317;-67
2023/01/06 03:48:46;;;;;;;21.83;5.68;;;;;;;-144.47;98.11;52937.53;4970256;28;20029;-67
2023/01/06 03:51:21;;;;;;;17.08;6.25;;;;;;;-144.47;98.01;52887.88;4971634;28;20019;-66
2023/01/06 03:53:49;;;;;;;19.95;6.22;;;;;;;-144.47;97.85;52909.72;4971342;28;20500;-67
2023/01/06 03:56:26;;;;;;;21.00;5.67;;;;;;;-144.47;97.74;52939.50;4963598;28;20477;-66
2023/01/06 03:58:56;;;;;;;22.95;5.43;;;;;;;-144.47;97.91;52919.66;4966122;28;20456;-67
2023/01/06 04:01:25;;;;;;;15.50;5.15;;;;;;;-144.47;97.84;52923.63;4968759;28;20038;-66
2023/01/06 04:03:52;;;;;;;15.87;4.43;;;;;;;-144.47;97.92;52917.66;4969201;28;20662;-67
2023/01/06 04:06:17;;;;;;;20.20;5.15;;;;;;;-144.47;98.17;52907.72;4969665;28;20042;-67
2023/01/06 04:08:42;;;;;;;20.90;3.70;;;;;;;-144.47;98.15;52917.66;4969161;28;20019;-66
2023/01/06 04:12:37;;;;;;;17.73;3.47;;;;;;;-144.47;98.11;52927.59;4970340;28;20098;-66
2023/01/06 04:13:53;;;;;;;12.60;3.85;;;;;;;-144.47;98.28;52921.63;4969242;28;20113;-65
2023/01/06 04:16:18;;;;;;;16.05;4.07;;;;;;;-144.47;98.44;52915.69;4969136;28;20169;-66
2023/01/06 04:18:44;;;;;;;21.38;4.03;;;;;;;-144.47;98.95;52905.75;4969544;28;20102;-66
2023/01/06 04:21:09;;;;;;;13.88;4.35;;;;;;;-144.47;99.54;52897.81;4970007;28;20026;-68
2023/01/06 04:23:34;;;;;;;25.42;4.38;;;;;;;-144.47;100.00;52937.53;4970029;28;20050;-67
2023/01/06 04:26:03;;;;;;;12.70;4.18;;;;;;;-144.47;100.00;52911.69;4969945;28;20105;-66
2023/01/06 04:28:28;;;;;;;17.48;3.53;;;;;;;-144.47;100.00;52893.81;4968922;28;20029;-66
2023/01/06 04:30:57;;;;;;;19.70;4.63;;;;;;;-144.47;100.00;52939.50;4969066;28;20038;-67
2023/01/06 04:33:22;;;;;;;;;;;;;;;-144.47;100.00;52901.78;4970438;28;20492;-66
2023/01/06 04:35:48;;;;;;;15.25;3.67;;;;;;;-144.47;100.00;52935.53;4970079;28;19942;-68
2023/01/06 04:38:13;;;;;;;20.88;4.18;;;;;;;-144.47;100.00;52915.69;4968864;28;20464;-66
2023/01/06 04:40:41;;;;;;;18.52;3.35;;;;;;;-144.47;100.00;52923.63;4969661;28;20109;-68
2023/01/06 04:43:06;;;;;;;21.13;3.75;;;;;;;-144.47;100.00;52937.53;4969647;28;20166;-67
2023/01/06 04:45:35;;;;;;;19.90;3.80;;;;;;;-144.47;100.00;52911.69;4966946;28;20719;-67
2023/01/06 04:48:00;;;;;;;10.02;3.67;;;;;;;-144.47;100.00;52915.69;4968584;28;20389;-68
2023/01/06 04:50:25;;;;;;;23.38;4.32;;;;;;;-144.47;100.00;52933.56;4969142;28;20457;-65
2023/01/06 04:52:51;;;;;;;11.77;2.85;;;;;;;-144.47;100.00;52883.91;4969561;28;20026;-66
2023/01/06 04:55:16;;;;;;;12.63;3.50;;;;;;;-144.47;100.00;52917.66;4966277;28;20090;-67
2023/01/06 04:57:41;;;;;;;13.73;3.30;;;;;;;-144.47;100.00;52927.59;4964803;28;20113;-67
2023/01/06 05:00:08;;;;;;;24.55;3.45;;;;;;;-144.47;100.00;52933.56;4965601;28;20042;-67
2023/01/06 05:02:33;;;;;;;11.88;3.53;;;;;;;-144.47;100.00;52937.53;4969288;28;20114;-66
2023/01/06 05:04:58;;;;;;;12.75;3.60;;;;;;;-144.47;100.00;52927.59;4969234;28;20098;-67
2023/01/06 05:07:24;;;;;;;14.10;3.58;;;;;;;-144.47;100.00;52947.47;4968436;28;20108;-66
2023/01/06 05:09:49;;;;;;;15.07;3.40;;;;;;;-144.47;100.00;52901.78;4969436;28;20086;-66
2023/01/06 05:12:14;;;;;;;13.07;3.65;;;;;;;-144.47;100.00;52909.72;4969807;28;20034;-66
2023/01/06 05:14:40;;;;;;;14.13;3.72;;;;;;;-144.47;100.00;52903.75;4967877;28;20365;-67
2023/01/06 05:17:05;;;;;;;23.08;4.70;;;;;;;-144.47;100.00;52909.72;4968568;28;20433;-68
2023/01/06 05:19:30;;;;;;;11.18;4.00;;;;;;;-144.47;100.00;52911.69;4969116;28;20042;-68
2023/01/06 05:21:56;;;;;;;13.65;5.00;;;;;;;-144.47;100.00;52885.88;4984538;28;20027;-67
2023/01/06 05:24:21;;;;;;;10.02;4.18;;;;;;;-144.47;100.00;52911.69;4969450;28;20023;-68
2023/01/06 05:26:46;;;;;;;12.68;4.15;;;;;;;-144.47;100.00;52909.72;4968946;28;20023;-67
2023/01/06 05:29:15;;;;;;;21.75;4.35;;;;;;;-144.47;100.00;52887.88;4968164;28;20038;-67
2023/01/06 05:31:41;;;;;;;12.07;4.22;;;;;;;-144.47;100.00;52915.69;4969279;28;20030;-66
2023/01/06 05:34:06;;;;;;;17.98;4.22;;;;;;;-144.47;100.00;52923.63;4968752;28;20030;-68
2023/01/06 05:36:31;;;;;;;21.50;3.67;;;;;;;-144.47;100.00;52947.47;4968584;28;20611;-68
2023/01/06 05:38:56;;;;;;;9.80;3.10;;;;;;;-144.47;100.00;52951.44;4969289;28;20053;-69
2023/01/06 05:41:22;;;;;;;10.88;3.03;;;;;;;-144.47;100.00;52943.47;4968716;28;20085;-66
2023/01/06 05:43:47;;;;;;;7.85;2.88;;;;;;;-144.47;100.00;52923.63;4968105;28;20042;-67
2023/01/06 05:46:13;;;;;;;10.23;3.10;;;;;;;-144.47;100.00;52895.81;4968222;28;20018;-67
2023/01/06 05:48:38;;;;;;;9.07;3.15;;;;;;;-144.47;100.00;52893.81;4965369;28;20015;-70
2023/01/06 05:51:07;;;;;;;12.43;2.80;;;;;;;-144.47;100.00;52911.69;4968732;28;20023;-68
2023/01/06 05:53:34;;;;;;;13.80;3.88;;;;;;;-144.47;100.00;52923.63;4968717;28;20358;-68
2023/01/06 05:56:08;;;;;;;10.27;3.35;;;;;;;-144.47;100.00;52923.63;4968593;28;20112;-68
2023/01/06 05:58:35;;;;;;;12.27;3.45;;;;;;;-144.47;100.00;52925.59;4966958;28;20031;-68
2023/01/06 06:01:01;;;;;;;12.02;2.63;;;;;;;-144.47;100.00;52901.78;4963365;28;20374;-66
2023/01/06 06:03:27;;;;;;;9.60;2.42;;;;;;;-144.47;100.00;52915.69;4970306;28;20029;-69
2023/01/06 06:05:52;;;;;;;7.10;2.60;;;;;;;-144.47;100.00;52919.66;4967971;28;20469;-67
2023/01/06 06:08:17;;;;;;;12.60;3.20;;;;;;;-144.47;100.00;52923.63;4968890;28;20441;-68
2023/01/06 06:10:43;;;;;;;6.45;2.83;;;;;;;-144.47;100.00;52903.75;4968992;28;20042;-67
2023/01/06 06:13:08;;;;;;;8.23;2.97;;;;;;;-144.47;100.00;52925.59;4969102;28;20019;-69
2023/01/06 06:15:34;;;;;;;6.93;2.50;;;;;;;-144.47;100.00;52891.84;4971516;28;20503;-66
2023/01/06 06:18:01;;;;;;;10.82;2.85;;;;;;;-144.47;100.00;52927.59;4964946;28;20110;-67
2023/01/06 06:20:26;;;;;;;9.55;2.85;;;;;;;-144.47;100.00;52897.81;4968291;28;20022;-67
2023/01/06 06:22:52;;;;;;;8.55;2.47;;;;;;;-144.47;100.00;52897.81;4967412;28;20077;-65
2023/01/06 06:25:17;;;;;;;8.75;3.22;;;;;;;-144.47;100.00;52921.63;4962379;28;20081;-67
2023/01/06 06:27:42;;;;;;;6.38;2.45;;;;;;;-144.47;100.00;52911.69;4962949;28;20070;-67
2023/01/06 06:30:08;;;;;;;4.65;2.53;;;;;;;-144.47;100.00;52907.72;4964006;28;20063;-68
2023/01/06 06:32:33;;;;;;;7.30;2.28;;;;;;;-144.47;100.00;52915.69;4963219;28;20042;-67
2023/01/06 06:34:59;;;;;;;7.28;2.70;;;;;;;-144.47;100.00;52903.75;4963267;28;20031;-69
2023/01/06 06:37:24;;;;;;;10.07;3.33;;;;;;;-144.47;100.00;52917.66;4963130;28;20066;-68
2023/01/06 06:39:50;;;;;;;10.07;2.63;;;;;;;-144.47;100.00;52915.69;4963036;28;20048;-67
2023/01/06 06:42:15;;;;;;;8.10;3.13;;;;;;;-144.47;100.00;52864.03;4965046;28;20501;-67
2023/01/06 06:44:40;;;;;;;5.38;2.65;;;;;;;-144.47;100.00;52903.75;4961847;28;20026;-64
2023/01/06 06:47:06;;;;;;;8.98;2.70;;;;;;;-144.47;100.00;52911.69;4963170;28;20014;-68
2023/01/06 06:49:32;;;;;;;7.10;3.00;;;;;;;-144.47;100.00;52905.75;4962770;28;20030;-67
2023/01/06 06:51:57;;;;;;;9.25;3.10;;;;;;;-144.47;100.00;52907.72;4965062;28;20113;-68
2023/01/06 06:54:22;;;;;;;8.93;2.97;;;;;;;-144.47;100.00;52881.91;4961758;28;20043;-68
2023/01/06 06:56:48;;;;;;;6.75;2.72;;;;;;;-144.47;100.00;52889.84;4963352;28;20121;-68
2023/01/06 06:59:13;;;;;;;9.82;3.28;;;;;;;-144.47;100.00;52915.69;5023922;22;20053;-66
2023/01/06 07:01:38;;;;;;;7.55;3.33;;;;;;;-144.47;100.00;52915.69;5024083;28;20715;-64
2023/01/06 07:04:04;;;;;;;7.32;3.75;;;;;;;-144.47;100.00;52913.69;5023233;28;20150;-64
2023/01/06 07:06:30;;;;;;;8.93;3.60;;;;;;;-144.47;100.00;52907.72;5023327;28;20029;-65
2023/01/06 07:08:56;;;;;;;7.45;3.28;;;;;;;-144.47;100.00;52913.69;5016412;28;20082;-65
2023/01/06 07:11:21;;;;;;;6.47;3.03;;;;;;;-144.47;100.00;52909.72;5018991;28;20386;-67
2023/01/06 07:13:47;;;;;;;7.45;3.15;;;;;;;-144.47;100.00;52903.75;5015978;28;20030;-66
2023/01/06 07:16:13;;;;;;;7.20;3.75;;;;;;;-144.47;100.00;52901.78;5010689;28;20126;-66
2023/01/06 07:18:38;;;;;;;9.38;2.80;;;;;;;-144.47;100.00;52913.69;5010281;28;20033;-62
2023/01/06 07:21:04;;;;;;;7.40;3.17;;;;;;;-144.47;100.00;52887.88;5014696;28;20663;-64
2023/01/06 07:23:30;;;;;;;7.82;2.85;;;;;;;-144.47;100.00;52909.72;5016869;28;20033;-66
2023/01/06 07:25:58;;;;;;;9.23;3.03;;;;;;;-144.47;100.00;52903.75;5013931;28;20037;-65
2023/01/06 07:28:24;;;;;;;12.63;2.95;;;;;;;-144.47;100.00;52911.69;5014773;28;20041;-64
2023/01/06 07:30:50;;;;;;;8.77;3.22;;;;;;;-144.47;100.00;52911.69;5014941;28;20030;-65
2023/01/06 07:33:16;;;;;;;5.95;2.92;;;;;;;-144.47;100.00;52899.78;5027090;28;20014;-65
2023/01/06 07:35:42;;;;;;;6.78;2.88;;;;;;;-144.47;100.00;52903.75;5030066;28;20025;-65
2023/01/06 07:38:08;;;;;;;7.72;2.67;;;;;;;-144.47;100.00;52919.66;5029106;28;20018;-68
2023/01/06 07:40:34;;;;;;;6.22;2.90;;;;;;;-144.47;100.00;52893.81;5030856;28;20023;-68
2023/01/06 07:43:04;;;;;;;4.82;2.05;;;;;;;-144.47;100.00;52897.81;5030207;28;20049;-68
2023/01/06 07:45:29;;;;;;;4.43;2.15;;;;;;;-144.47;100.00;52917.66;5021018;28;20043;-65
2023/01/06 07:47:55;;;;;;;5.10;2.25;;;;;;;-144.47;100.00;52915.69;5029394;28;20385;-67
2023/01/06 07:50:21;;;;;;;4.70;2.10;;;;;;;-144.47;100.00;52909.72;5028484;28;20734;-67
2023/01/06 07:52:46;;;;;;;5.45;1.75;;;;;;;-144.47;100.00;52911.69;5016933;28;20113;-68
2023/01/06 07:55:11;;;;;;;5.28;1.80;;;;;;;-144.47;100.00;52905.75;5029187;28;20075;-68
2023/01/06 07:57:37;;;;;;;2.83;1.55;;;;;;;-144.47;100.00;52943.47;5027514;28;20017;-69
2023/01/06 08:00:03;;;;;;;2.75;1.58;;;;;;;-144.47;100.00;52903.75;5021568;28;20096;-64
2023/01/06 08:02:28;;;;;;;5.95;1.88;;;;;;;-144.47;100.00;52907.72;5024582;28;20061;-63
2023/01/06 08:04:53;;;;;;;9.23;2.47;;;;;;;-144.47;100.00;52905.75;5029776;28;20055;-66
2023/01/06 08:07:19;;;;;;;10.57;2.72;;;;;;;-144.47;100.00;52875.94;5029752;28;20022;-67
2023/01/06 08:09:44;;;;;;;5.05;1.80;;;;;;;-144.47;100.00;52903.75;5029191;28;20029;-68
2023/01/06 08:12:10;;;;;;;10.48;1.88;;;;;;;-144.47;100.00;52891.84;5023676;28;20095;-65
2023/01/06 08:14:36;;;;;;;4.60;1.58;;;;;;;-144.47;100.00;52907.72;5023280;28;20068;-67
2023/01/06 08:17:01;;;;;;;4.85;1.80;;;;;;;-144.47;100.00;52893.81;5024984;28;20064;-66
2023/01/06 08:19:27;;;;;;;4.72;1.50;;;;;;;-144.47;100.00;52895.81;5029974;28;20017;-66
2023/01/06 08:21:52;;;;;;;2.92;1.50;;;;;;;-144.47;100.00;52883.91;5029284;28;20152;-67
2023/01/06 08:24:17;;;;;;;4.07;1.92;;;;;;;-144.47;100.00;52891.84;5026747;28;20022;-62
2023/01/06 08:26:43;;;;;;;8.40;1.65;;;;;;;-144.47;100.00;52866.03;5023792;28;20078;-67
2023/01/06 08:29:08;;;;;;;3.45;1.45;;;;;;;-144.47;99.91;52889.84;5028387;28;20140;-65
2023/01/06 08:31:34;;;;;;;2.00;1.20;;;;;;;-144.47;100.00;52891.84;5030079;28;20432;-66
2023/01/06 08:33:59;;;;;;;3.78;1.70;;;;;;;-144.47;100.00;52873.97;5028956;28;20541;-63
2023/01/06 08:36:26;;;;;;;3.50;1.50;;;;;;;-144.47;100.00;52858.06;5027663;28;20025;-64
2023/01/06 08:38:52;;;;;;;3.47;1.40;;;;;;;-144.47;100.00;52895.81;5028000;28;20024;-67
2023/01/06 08:41:18;;;;;;;2.58;1.48;;;;;;;-144.47;100.00;52850.13;5020846;28;20030;-64
2023/01/06 08:43:44;;;;;;;5.38;1.38;;;;;;;-144.47;100.00;52895.81;5028677;28;20379;-65
2023/01/06 08:46:12;;;;;;;2.65;1.42;;;;;;;-144.47;100.00;52879.94;5029740;28;20534;-67
2023/01/06 08:48:38;;;;;;;1.80;1.10;;;;;;;-144.47;100.00;52907.72;5028889;28;20013;-65
2023/01/06 08:51:06;;;;;;;2.53;1.38;;;;;;;-144.47;100.00;52897.81;5028122;28;20060;-64
2023/01/06 08:53:32;;;;;;;2.35;1.17;;;;;;;-144.47;100.00;52905.75;5028345;28;20568;-67
2023/01/06 08:55:58;;;;;;;2.13;1.17;;;;;;;-144.47;100.00;52856.09;5020964;28;20045;-65
2023/01/06 08:58:24;;;;;;;2.35;1.30;;;;;;;-144.47;100.00;52883.91;5025622;28;20041;-65
2023/01/06 09:00:49;;;;;;;1.80;0.98;;;;;;;-144.47;100.00;52871.97;5028489;28;20044;-65
2023/01/06 09:03:14;;;;;;;2.92;1.30;;;;;;;-144.47;100.00;52897.81;5028734;28;20033;-66
2023/01/06 09:05:40;;;;;;;3.90;1.30;;;;;;;-144.47;100.00;52897.81;5029933;28;20025;-64
2023/01/06 09:08:05;;;;;;;1.48;0.90;;;;;;;-144.47;100.00;52864.03;5028468;28;20431;-66
2023/01/06 09:10:31;;;;;;;3.10;1.67;;;;;;;-144.47;99.80;52899.78;5029867;28;20094;-65
2023/01/06 09:12:56;;;;;;;1.50;0.95;;;;;;;-144.47;99.69;52870.00;5029779;28;20029;-63
2023/01/06 09:15:21;;;;;;;4.00;1.17;;;;;;;-144.47;99.67;52897.81;5028063;28;20101;-65
2023/01/06 09:17:47;;;;;;;2.25;1.30;;;;;;;-144.47;99.57;52901.78;5028766;28;20082;-61
2023/01/06 09:20:12;;;;;;;3.80;1.20;;;;;;;-144.47;99.69;52877.94;5029385;28;20028;-67
2023/01/06 09:22:37;;;;;;;7.05;1.60;;;;;;;-144.47;100.00;52860.06;5029964;28;20026;-65
2023/01/06 09:25:03;;;;;;;2.83;1.08;;;;;;;-144.47;100.00;52866.03;5025504;28;20479;-67
2023/01/06 09:27:29;;;;;;;2.55;1.27;;;;;;;-144.47;100.00;52903.75;5029221;28;20013;-64
2023/01/06 09:29:54;;;;;;;2.60;1.00;;;;;;;-144.47;100.00;52883.91;5028600;28;20025;-67
2023/01/06 09:32:19;;;;;;;0.90;0.75;;;;;;;-144.47;100.00;52907.72;5029962;28;20033;-67
2023/01/06 09:34:45;;;;;;;1.23;0.90;;;;;;;-144.47;100.00;52895.81;5029026;28;20014;-66
2023/01/06 09:37:10;;;;;;;2.30;1.10;;;;;;;-144.47;100.00;52868.00;5022382;28;20022;-67
2023/01/06 09:39:36;;;;;;;2.58;1.25;;;;;;;-144.47;100.00;52883.91;5020580;28;20044;-64
2023/01/06 09:42:23;;;;;;;2.72;1.08;;;;;;;-144.47;99.61;52883.91;5031271;28;20095;-66
2023/01/06 09:44:57;;;;;;;1.52;0.90;;;;;;;-144.47;99.03;52889.84;5027747;28;20051;-63
2023/01/06 09:47:39;;;;;;;1.98;0.95;;;;;;;-144.47;98.40;52895.81;5028851;28;20075;-67
2023/01/06 09:50:30;;;;;;;1.35;0.93;;;;;;;-144.47;97.86;52911.69;5027952;28;20017;-64
2023/01/06 09:53:01;;;;;;;3.70;1.42;;;;;;;-144.47;97.85;52887.88;5019367;28;20526;-66
2023/01/06 09:55:31;;;;;;;1.95;1.17;;;;;;;-144.47;96.81;52881.91;5021536;28;20029;-63
2023/01/06 09:58:26;;;;;;;3.28;1.27;;;;;;;-144.47;95.80;52883.91;5013041;28;20025;-65
2023/01/06 10:00:54;;;;;;;3.78;1.15;;;;;;;-144.47;94.95;52848.16;5024162;28;20033;-63
2023/01/06 10:03:26;;;;;;;3.83;1.33;;;;;;;-144.47;94.13;52854.09;5027967;28;20032;-62
2023/01/06 10:05:55;;;;;;;2.90;1.20;;;;;;;-144.47;92.99;52856.09;5032876;28;20018;-67
2023/01/06 10:08:57;;;;;;;1.60;0.90;;;;;;;-144.47;92.72;52862.06;5026120;28;20025;-66
2023/01/06 10:11:31;;;;;;;1.70;1.00;;;;;;;-144.47;91.80;52887.88;5021511;28;20033;-68
2023/01/06 10:14:37;;;;;;;3.10;1.30;;;;;;;-144.47;90.60;52891.84;5031956;28;20037;-62
2023/01/06 10:17:29;;;;;;;1.75;1.13;;;;;;;-144.47;90.11;52871.97;5037942;28;20022;-64
2023/01/06 10:20:10;;;;;;;2.22;0.95;;;;;;;-144.47;88.24;52899.78;5034968;28;20021;-65
2023/01/06 10:23:12;;;;;;;3.75;1.25;;;;;;;-144.47;87.57;52862.06;5034874;28;20025;-65
2023/01/06 10:25:54;;;;;;;2.72;1.17;;;;;;;-144.47;87.76;52862.06;5028173;28;20032;-66
2023/01/06 10:28:23;;;;;;;1.13;0.80;;;;;;;-144.47;86.37;52885.88;5023845;28;20174;-64
2023/01/06 10:30:50;;;;;;;3.72;1.08;;;;;;;-144.47;85.95;52881.91;5027068;28;20140;-63
2023/01/06 10:33:27;;;;;;;1.67;0.88;;;;;;;-144.47;84.27;52883.91;5032421;28;20028;-63
2023/01/06 10:35:54;;;;;;;3.00;0.95;;;;;;;-144.47;84.18;52870.00;5032485;28;20018;-67
2023/01/06 10:38:27;;;;;;;2.05;0.70;;;;;;;-144.47;83.40;52860.06;5032034;28;20056;-63
2023/01/06 10:41:01;;;;;;;2.22;0.80;;;;;;;-144.47;82.20;52862.06;5032532;28;20041;-67
2023/01/06 10:43:27;;;;;;;1.00;0.55;;;;;;;-144.47;80.55;52832.25;5032025;28;20032;-66
2023/01/06 10:45:54;;;;;;;1.15;0.70;;;;;;;-144.47;80.65;52870.00;5031681;28;20395;-67
2023/01/06 10:48:27;;;;;;;0.60;0.40;;;;;;;-144.47;78.73;52844.19;5031454;28;20402;-66
2023/01/06 10:50:52;;;;;;;0.70;0.50;;;;;;;-144.47;78.25;52844.19;5032997;28;20025;-63
2023/01/06 10:53:18;;;;;;;1.23;0.60;;;;;;;-144.47;77.97;52897.81;5032630;28;20040;-67
2023/01/06 10:56:00;;;;;;;1.38;0.68;;;;;;;-144.47;76.95;52868.00;5024872;28;20029;-65
2023/01/06 10:58:58;;;;;;;0.73;0.45;;;;;;;-144.47;76.87;52891.84;5019177;28;20387;-66
2023/01/06 11:01:25;;;;;;;1.03;0.60;;;;;;;-144.47;76.58;52864.03;5028327;28;20021;-66
2023/01/06 11:04:11;;;;;;;0.60;0.60;;;;;;;-144.47;76.53;52856.09;5032010;28;20025;-66
2023/01/06 11:06:51;;;;;;;3.95;0.93;;;;;;;-144.47;77.00;52864.03;5031853;28;20017;-67
2023/01/06 11:09:28;;;;;;;1.88;0.70;;;;;;;-144.47;75.49;52871.97;5034514;28;20077;-65
2023/01/06 11:11:56;;;;;;;0.52;0.50;;;;;;;-144.47;76.33;52834.25;5031773;28;20021;-66
2023/01/06 11:14:27;;;;;;;1.80;0.70;;;;;;;-144.47;76.18;52868.00;5026397;28;20029;-66
2023/01/06 11:17:00;;;;;;;5.28;0.90;;;;;;;-144.47;75.92;52860.06;5028786;28;20042;-67
2023/01/06 11:19:34;;;;;;;2.88;0.70;;;;;;;-144.47;75.83;52854.09;5026479;28;20025;-66